createdAt,value
2019-05-01T00:00:27.969Z,100156.94
2019-05-01T00:03:14.387Z,100163.04
2019-05-01T00:05:46.354Z,100162.84
2019-05-01T00:08:15.817Z,100165.50
2019-05-01T00:10:45.325Z,100157.78
2019-05-01T00:13:16.555Z,100156.23
2019-05-01T00:15:46.362Z,100149.89
2019-05-01T00:18:15.885Z,100152.04
2019-05-01T00:20:45.546Z,100146.81
2019-05-01T00:23:14.931Z,100150.25
2019-05-01T00:25:44.982Z,100153.06
2019-05-01T00:28:15.732Z,100146.06
2019-05-01T00:30:45.218Z,100142.77
2019-05-01T00:33:15.308Z,100141.30
2019-05-01T00:35:45.314Z,100140.75
2019-05-01T00:38:15.079Z,100131.49
2019-05-01T00:40:45.146Z,100131.29
2019-05-01T00:43:15.488Z,100131.69
2019-05-01T00:45:45.154Z,100127.84
2019-05-01T00:48:15.184Z,100119.57
2019-05-01T00:50:45.202Z,100113.75
2019-05-01T00:53:15.219Z,100116.96
2019-05-01T00:55:52.648Z,100111.25
2019-05-01T00:58:23.966Z,100117.75
2019-05-01T01:01:07.045Z,100114.02
2019-05-01T01:03:36.905Z,100112.48
2019-05-01T01:06:08.088Z,100103.05
2019-05-01T01:08:37.453Z,100109.62
2019-05-01T01:11:06.866Z,100104.63
2019-05-01T01:13:36.291Z,100096.91
2019-05-01T01:16:05.795Z,100091.65
2019-05-01T01:18:35.172Z,100092.16
2019-05-01T01:21:04.558Z,100089.62
2019-05-01T01:23:35.043Z,100088.55
2019-05-01T01:26:05.005Z,100079.45
2019-05-01T01:28:34.486Z,100078.97
2019-05-01T01:31:04.232Z,100084.94
2019-05-01T01:33:33.695Z,100079.04
2019-05-01T01:36:03.071Z,100072.08
2019-05-01T01:38:32.568Z,100072.86
2019-05-01T01:41:02.283Z,100073.42
2019-05-01T01:43:45.333Z,100073.69
2019-05-01T01:46:20.209Z,100066.03
2019-05-01T01:48:49.772Z,100070.17
2019-05-01T01:51:20.185Z,100068.67
2019-05-01T01:53:51.652Z,100069.80
2019-05-01T01:56:21.655Z,100053.98
2019-05-01T01:58:52.521Z,100060.42
2019-05-01T02:01:32.418Z,100057.56
2019-05-01T02:04:03.590Z,100050.75
2019-05-01T02:06:33.221Z,100053.45
2019-05-01T02:09:03.080Z,100052.33
2019-05-01T02:11:32.734Z,100051.53
2019-05-01T02:14:02.101Z,100049.75
2019-05-01T02:16:31.497Z,100053.25
2019-05-01T02:19:01.026Z,100050.48
2019-05-01T02:21:30.481Z,100050.67
2019-05-01T02:23:59.907Z,100048.89
2019-05-01T02:26:43.913Z,100045.41
2019-05-01T02:29:17.742Z,100041.35
2019-05-01T02:31:50.804Z,100041.94
2019-05-01T02:34:21.965Z,100038.72
2019-05-01T02:36:54.694Z,100038.13
2019-05-01T02:39:26.381Z,100034.48
2019-05-01T02:41:59.192Z,100029.97
2019-05-01T02:44:35.988Z,100032.08
2019-05-01T02:47:10.237Z,100031.62
2019-05-01T02:49:47.308Z,100028.95
2019-05-01T02:52:19.184Z,100030.25
2019-05-01T02:54:49.789Z,100040.80
2019-05-01T02:57:22.289Z,100037.66
2019-05-01T02:59:56.061Z,100030.05
2019-05-01T03:02:28.891Z,100031.22
2019-05-01T03:05:00.523Z,100032.82
2019-05-01T03:07:33.921Z,100029.80
2019-05-01T03:10:09.306Z,100027.13
2019-05-01T03:12:42.197Z,100031.98
2019-05-01T03:15:13.899Z,100035.60
2019-05-01T03:17:49.860Z,100029.05
2019-05-01T03:20:23.716Z,100027.26
2019-05-01T03:23:13.728Z,100025.28
2019-05-01T03:25:43.786Z,100022.39
2019-05-01T03:28:14.847Z,100019.92
2019-05-01T03:30:44.476Z,100018.49
2019-05-01T03:33:14.837Z,100022.83
2019-05-01T03:35:44.582Z,100021.84
2019-05-01T03:38:14.506Z,100015.44
2019-05-01T03:40:43.925Z,100008.06
2019-05-01T03:43:14.139Z,100011.13
2019-05-01T03:45:44.386Z,100013.05
2019-05-01T03:48:14.262Z,100010.19
2019-05-01T03:50:46.787Z,100005.06
2019-05-01T03:53:14.928Z,100009.44
2019-05-01T03:55:45.130Z,100016.49
2019-05-01T03:58:15.095Z,100011.45
2019-05-01T04:00:46.684Z,100012.30
2019-05-01T04:03:27.474Z,100011.95
2019-05-01T04:05:57.240Z,100010.03
2019-05-01T04:08:26.887Z,100011.28
2019-05-01T04:10:56.610Z,100008.80
2019-05-01T04:13:26.168Z,100008.38
2019-05-01T04:15:56.719Z,100013.22
2019-05-01T04:18:27.770Z,100012.94
2019-05-01T04:20:58.215Z,100010.02
2019-05-01T04:23:28.448Z,100002.64
2019-05-01T04:25:57.970Z,100002.36
2019-05-01T04:28:29.090Z,100007.02
2019-05-01T04:31:00.331Z,100003.42
2019-05-01T04:33:31.215Z,100007.02
2019-05-01T04:36:08.791Z,100005.09
2019-05-01T04:38:38.239Z,100010.86
2019-05-01T04:41:07.953Z,100013.15
2019-05-01T04:43:37.580Z,100015.12
2019-05-01T04:46:07.130Z,100008.86
2019-05-01T04:48:36.877Z,100013.25
2019-05-01T04:51:06.659Z,100016.33
2019-05-01T04:53:36.291Z,100015.92
2019-05-01T04:56:06.072Z,100015.20
2019-05-01T04:58:35.606Z,100015.95
2019-05-01T05:01:05.336Z,100014.13
2019-05-01T05:03:35.551Z,100008.80
2019-05-01T05:06:05.544Z,100005.63
2019-05-01T05:08:35.157Z,100005.32
2019-05-01T05:11:09.275Z,100009.09
2019-05-01T05:13:43.352Z,100016.67
2019-05-01T05:16:17.551Z,100011.10
2019-05-01T05:18:47.268Z,100013.80
2019-05-01T05:21:16.819Z,100018.09
2019-05-01T05:23:46.701Z,100011.46
2019-05-01T05:26:17.167Z,100007.51
2019-05-01T05:28:48.465Z,100007.55
2019-05-01T05:31:20.951Z,100010.02
2019-05-01T05:33:52.343Z,100014.67
2019-05-01T05:36:25.624Z,100012.07
2019-05-01T05:38:57.814Z,100011.98
2019-05-01T05:41:29.042Z,100005.84
2019-05-01T05:43:58.505Z,100009.62
2019-05-01T05:46:29.390Z,100008.30
2019-05-01T05:48:58.855Z,100013.02
2019-05-01T05:51:44.104Z,100015.05
2019-05-01T05:54:32.720Z,100018.21
2019-05-01T05:57:07.967Z,100017.89
2019-05-01T05:59:43.403Z,100019.01
2019-05-01T06:02:18.174Z,100024.92
2019-05-01T06:04:56.594Z,100024.13
2019-05-01T06:07:37.663Z,100024.39
2019-05-01T06:10:11.926Z,100023.86
2019-05-01T06:13:02.955Z,100026.45
2019-05-01T06:15:41.429Z,100026.34
2019-05-01T06:18:34.777Z,100017.76
2019-05-01T06:21:13.921Z,100022.89
2019-05-01T06:23:57.818Z,100025.95
2019-05-01T06:26:31.922Z,100022.16
2019-05-01T06:29:04.316Z,100025.92
2019-05-01T06:31:34.223Z,100026.24
2019-05-01T06:34:03.962Z,100020.73
2019-05-01T06:36:34.070Z,100023.84
2019-05-01T06:39:11.749Z,100019.27
2019-05-01T06:41:43.169Z,100024.20
2019-05-01T06:44:15.830Z,100025.92
2019-05-01T06:46:47.222Z,100025.27
2019-05-01T06:49:29.307Z,100023.89
2019-05-01T06:51:58.195Z,100027.97
2019-05-01T06:54:31.248Z,100032.02
2019-05-01T06:57:03.762Z,100032.93
2019-05-01T06:59:35.779Z,100031.97
2019-05-01T07:02:06.253Z,100035.73
2019-05-01T07:04:37.904Z,100034.03
2019-05-01T07:07:23.954Z,100029.52
2019-05-01T07:09:44.086Z,100033.45
2019-05-01T07:15:05.869Z,100042.59
2019-05-01T07:17:35.992Z,100038.34
2019-05-01T07:20:18.231Z,100036.39
2019-05-01T07:22:48.467Z,100036.34
2019-05-01T07:25:17.953Z,100038.64
2019-05-01T07:27:47.348Z,100038.23
2019-05-01T07:30:21.322Z,100031.39
2019-05-01T07:32:51.061Z,100035.12
2019-05-01T07:35:21.092Z,100035.86
2019-05-01T07:37:51.043Z,100035.81
2019-05-01T07:40:28.927Z,100030.23
2019-05-01T07:42:58.248Z,100030.45
2019-05-01T07:45:32.447Z,100028.78
2019-05-01T07:48:05.586Z,100032.34
2019-05-01T07:50:33.733Z,100030.14
2019-05-01T07:53:03.207Z,100031.16
2019-05-01T07:55:36.375Z,100028.89
2019-05-01T07:58:16.053Z,100036.42
2019-05-01T08:00:48.939Z,100038.67
2019-05-01T08:03:18.707Z,100032.34
2019-05-01T08:05:48.165Z,100038.53
2019-05-01T08:08:17.761Z,100039.75
2019-05-01T08:10:47.495Z,100031.14
2019-05-01T08:13:16.947Z,100032.89
2019-05-01T08:15:46.371Z,100034.64
2019-05-01T08:18:24.002Z,100036.31
2019-05-01T08:20:56.362Z,100034.41
2019-05-01T08:23:26.233Z,100034.67
2019-05-01T08:25:56.156Z,100040.98
2019-05-01T08:28:39.659Z,100043.14
2019-05-01T08:31:16.617Z,100042.64
2019-05-01T08:33:56.646Z,100040.11
2019-05-01T08:36:26.319Z,100043.08
2019-05-01T08:38:56.261Z,100043.34
2019-05-01T08:41:27.150Z,100040.92
2019-05-01T08:43:57.635Z,100041.61
2019-05-01T08:46:46.732Z,100041.38
2019-05-01T08:49:22.967Z,100039.59
2019-05-01T08:51:52.439Z,100039.36
2019-05-01T08:54:21.994Z,100041.24
2019-05-01T08:56:52.876Z,100044.36
2019-05-01T08:59:24.095Z,100040.23
2019-05-01T09:02:08.451Z,100043.64
2019-05-01T09:04:30.404Z,100043.69
2019-05-01T09:06:57.198Z,100039.30
2019-05-01T09:09:27.224Z,100039.36
2019-05-01T09:11:57.306Z,100033.38
2019-05-01T09:14:29.833Z,100035.66
2019-05-01T09:16:59.063Z,100032.44
2019-05-01T09:19:28.560Z,100036.66
2019-05-01T09:21:57.922Z,100031.40
2019-05-01T09:24:28.301Z,100029.26
2019-05-01T09:27:02.701Z,100031.66
2019-05-01T09:29:36.493Z,100024.90
2019-05-01T09:32:10.233Z,100021.19
2019-05-01T09:34:37.793Z,100020.00
2019-05-01T09:37:07.323Z,100021.75
2019-05-01T09:39:37.223Z,100016.32
2019-05-01T09:42:06.912Z,100015.67
2019-05-01T09:44:57.854Z,100019.73
2019-05-01T09:47:27.920Z,100012.14
2019-05-01T09:49:57.780Z,100012.50
2019-05-01T09:52:45.708Z,100010.88
2019-05-01T09:55:17.821Z,100010.02
2019-05-01T09:57:48.158Z,100016.95
2019-05-01T10:00:26.152Z,100018.36
2019-05-01T10:02:55.568Z,100010.30
2019-05-01T10:05:29.075Z,100007.14
2019-05-01T10:08:00.135Z,100005.37
2019-05-01T10:10:30.625Z,100010.06
2019-05-01T10:13:00.265Z,99998.27
2019-05-01T10:15:30.010Z,99996.02
2019-05-01T10:17:59.577Z,100002.03
2019-05-01T10:20:29.056Z,99992.84
2019-05-01T10:22:58.497Z,99989.84
2019-05-01T10:25:28.233Z,99989.30
2019-05-01T10:28:01.881Z,99990.06
2019-05-01T10:30:49.525Z,99989.77
2019-05-01T10:33:28.901Z,99990.09
2019-05-01T10:36:18.259Z,99978.26
2019-05-01T10:38:45.099Z,99971.52
2019-05-01T10:41:13.736Z,99977.19
2019-05-01T10:43:43.205Z,99973.70
2019-05-01T10:46:12.662Z,99972.81
2019-05-01T10:48:42.164Z,99967.92
2019-05-01T10:51:11.623Z,99971.00
2019-05-01T10:53:43.229Z,99966.82
2019-05-01T10:56:12.389Z,99966.14
2019-05-01T10:58:41.797Z,99964.94
2019-05-01T11:01:28.189Z,99960.74
2019-05-01T11:03:57.646Z,99955.95
2019-05-01T11:06:27.542Z,99954.46
2019-05-01T11:08:56.948Z,99948.44
2019-05-01T11:11:26.358Z,99949.41
2019-05-01T11:13:55.869Z,99946.66
2019-05-01T11:16:25.308Z,99941.41
2019-05-01T11:18:54.729Z,99944.28
2019-05-01T11:21:24.282Z,99930.88
2019-05-01T11:23:53.698Z,99929.58
2019-05-01T11:26:23.305Z,99935.75
2019-05-01T11:28:52.747Z,99928.17
2019-05-01T11:31:39.521Z,99925.15
2019-05-01T11:34:19.468Z,99926.39
2019-05-01T11:36:50.557Z,99918.14
2019-05-01T11:39:24.713Z,99921.32
2019-05-01T11:41:58.721Z,99922.73
2019-05-01T11:44:28.205Z,99918.44
2019-05-01T11:46:57.767Z,99921.06
2019-05-01T11:49:27.704Z,99917.83
2019-05-01T11:51:57.185Z,99921.41
2019-05-01T11:54:26.619Z,99916.84
2019-05-01T11:56:56.061Z,99910.82
2019-05-01T11:59:25.604Z,99910.02
2019-05-01T12:01:55.443Z,99910.89
2019-05-01T12:04:24.840Z,99905.00
2019-05-01T12:06:54.263Z,99905.02
2019-05-01T12:09:23.840Z,99902.23
2019-05-01T12:11:54.932Z,99896.41
2019-05-01T12:14:24.539Z,99896.02
2019-05-01T12:16:55.631Z,99892.91
2019-05-01T12:19:31.037Z,99898.45
2019-05-01T12:22:00.992Z,99894.09
2019-05-01T12:24:31.681Z,99888.09
2019-05-01T12:27:01.488Z,99889.42
2019-05-01T12:29:31.560Z,99881.80
2019-05-01T12:32:01.506Z,99879.63
2019-05-01T12:34:31.361Z,99878.15
2019-05-01T12:37:20.835Z,99881.54
2019-05-01T12:39:51.971Z,99877.39
2019-05-01T12:42:23.161Z,99873.91
2019-05-01T12:44:52.606Z,99867.17
2019-05-01T12:47:32.435Z,99867.23
2019-05-01T12:50:01.915Z,99860.33
2019-05-01T12:52:38.724Z,99870.52
2019-05-01T12:55:26.448Z,99866.72
2019-05-01T12:57:55.837Z,99858.70
2019-05-01T13:00:42.186Z,99860.49
2019-05-01T13:03:12.509Z,99858.51
2019-05-01T13:05:42.018Z,99850.41
2019-05-01T13:08:11.574Z,99846.50
2019-05-01T13:10:41.013Z,99840.36
2019-05-01T13:13:11.290Z,99844.69
2019-05-01T13:15:42.579Z,99846.11
2019-05-01T13:18:11.988Z,99840.91
2019-05-01T13:20:41.708Z,99840.65
2019-05-01T13:23:11.568Z,99839.02
2019-05-01T13:25:41.108Z,99836.63
2019-05-01T13:28:15.134Z,99836.40
2019-05-01T13:30:46.203Z,99835.44
2019-05-01T13:33:15.675Z,99827.16
2019-05-01T13:35:45.136Z,99823.44
2019-05-01T13:38:14.676Z,99815.95
2019-05-01T13:40:44.135Z,99817.11
2019-05-01T13:43:13.913Z,99802.28
2019-05-01T13:45:43.309Z,99809.54
2019-05-01T13:48:12.853Z,99805.52
2019-05-01T13:50:42.273Z,99811.50
2019-05-01T13:53:11.661Z,99812.77
2019-05-01T13:55:41.081Z,99809.93
2019-05-01T13:58:10.549Z,99797.30
2019-05-01T14:00:40.085Z,99788.61
2019-05-01T14:03:09.518Z,99783.64
2019-05-01T14:05:39.008Z,99785.39
2019-05-01T14:08:08.860Z,99778.07
2019-05-01T14:10:38.328Z,99775.14
2019-05-01T14:13:07.815Z,99779.53
2019-05-01T14:15:37.281Z,99774.27
2019-05-01T14:18:07.452Z,99766.84
2019-05-01T14:20:51.322Z,99759.58
2019-05-01T14:23:25.402Z,99757.41
2019-05-01T14:26:05.311Z,99756.94
2019-05-01T14:28:36.226Z,99756.56
2019-05-01T14:31:07.623Z,99754.94
2019-05-01T14:33:37.643Z,99753.39
2019-05-01T14:36:08.002Z,99748.34
2019-05-01T14:38:37.642Z,99748.67
2019-05-01T14:41:07.664Z,99746.45
2019-05-01T14:43:37.624Z,99739.57
2019-05-01T14:46:08.325Z,99744.53
2019-05-01T14:48:37.834Z,99740.75
2019-05-01T14:51:07.831Z,99739.00
2019-05-01T14:53:38.198Z,99739.81
2019-05-01T14:56:08.088Z,99735.94
2019-05-01T14:58:38.467Z,99734.60
2019-05-01T15:01:08.270Z,99729.80
2019-05-01T15:03:38.518Z,99729.11
2019-05-01T15:06:08.308Z,99723.44
2019-05-01T15:08:57.642Z,99721.77
2019-05-01T15:11:27.164Z,99726.69
2019-05-01T15:13:58.236Z,99724.91
2019-05-01T15:16:32.211Z,99720.98
2019-05-01T15:19:09.253Z,99711.66
2019-05-01T15:21:38.912Z,99715.38
2019-05-01T15:24:08.707Z,99717.59
2019-05-01T15:26:38.663Z,99710.47
2019-05-01T15:29:08.835Z,99709.34
2019-05-01T15:31:38.752Z,99710.42
2019-05-01T15:34:08.676Z,99704.08
2019-05-01T15:36:39.361Z,99704.64
2019-05-01T15:39:11.703Z,99697.05
2019-05-01T15:42:00.868Z,99700.19
2019-05-01T15:44:31.991Z,99696.78
2019-05-01T15:47:01.798Z,99694.73
2019-05-01T15:49:31.455Z,99691.23
2019-05-01T15:52:01.468Z,99690.24
2019-05-01T15:54:31.036Z,99688.23
2019-05-01T15:57:00.651Z,99685.20
2019-05-01T15:59:30.446Z,99682.87
2019-05-01T16:01:59.987Z,99678.59
2019-05-01T16:04:30.473Z,99678.09
2019-05-01T16:07:00.052Z,99674.16
2019-05-01T16:09:29.662Z,99670.61
2019-05-01T16:12:09.573Z,99678.02
2019-05-01T16:14:39.468Z,99671.77
2019-05-01T16:17:09.169Z,99668.28
2019-05-01T16:19:39.175Z,99672.16
2019-05-01T16:22:09.215Z,99670.35
2019-05-01T16:24:38.975Z,99666.33
2019-05-01T16:27:08.509Z,99660.19
2019-05-01T16:29:38.081Z,99652.42
2019-05-01T16:32:07.499Z,99651.47
2019-05-01T16:34:36.880Z,99653.59
2019-05-01T16:37:06.426Z,99650.72
2019-05-01T16:39:46.395Z,99643.56
2019-05-01T16:42:15.830Z,99651.74
2019-05-01T16:44:47.345Z,99645.53
2019-05-01T16:47:17.059Z,99644.70
2019-05-01T16:49:46.489Z,99644.20
2019-05-01T16:52:17.151Z,99634.78
2019-05-01T16:54:58.719Z,99637.99
2019-05-01T16:57:18.024Z,99636.69
2019-05-01T16:59:47.462Z,99639.25
2019-05-01T17:02:24.437Z,99642.47
2019-05-01T17:05:04.148Z,99633.78
2019-05-01T17:07:35.345Z,99634.03
2019-05-01T17:10:13.928Z,99635.41
2019-05-01T17:12:51.985Z,99635.16
2019-05-01T17:15:26.268Z,99630.58
2019-05-01T17:17:55.871Z,99624.20
2019-05-01T17:20:27.123Z,99627.59
2019-05-01T17:22:56.582Z,99622.81
2019-05-01T17:25:26.025Z,99626.73
2019-05-01T17:27:55.429Z,99624.52
2019-05-01T17:30:40.878Z,99624.18
2019-05-01T17:33:19.826Z,99625.05
2019-05-01T17:35:43.163Z,99621.50
2019-05-01T17:38:12.817Z,99621.60
2019-05-01T17:40:42.388Z,99621.77
2019-05-01T17:43:13.324Z,99623.55
2019-05-01T17:45:43.369Z,99616.25
2019-05-01T17:48:12.869Z,99616.73
2019-05-01T17:50:42.290Z,99622.03
2019-05-01T17:53:11.681Z,99621.54
2019-05-01T17:55:41.171Z,99616.39
2019-05-01T17:58:12.259Z,99619.38
2019-05-01T18:00:59.953Z,99616.89
2019-05-01T18:03:36.779Z,99614.03
2019-05-01T18:06:07.974Z,99612.68
2019-05-01T18:08:37.379Z,99610.20
2019-05-01T18:11:09.425Z,99610.82
2019-05-01T18:13:37.980Z,99612.39
2019-05-01T18:16:07.528Z,99614.93
2019-05-01T18:18:37.000Z,99614.08
2019-05-01T18:21:08.144Z,99614.06
2019-05-01T18:23:55.298Z,99614.97
2019-05-01T18:26:38.781Z,99615.38
2019-05-01T18:29:11.315Z,99619.58
2019-05-01T18:31:40.783Z,99615.82
2019-05-01T18:34:10.321Z,99611.02
2019-05-01T18:36:47.356Z,99610.83
2019-05-01T18:39:21.963Z,99606.43
2019-05-01T18:41:52.340Z,99610.66
2019-05-01T18:44:21.827Z,99611.55
2019-05-01T18:46:51.255Z,99606.03
2019-05-01T18:49:20.761Z,99601.34
2019-05-01T18:51:50.557Z,99608.39
2019-05-01T18:54:20.395Z,99603.25
2019-05-01T18:56:49.882Z,99601.79
2019-05-01T18:59:19.271Z,99606.03
2019-05-01T19:01:49.747Z,99608.44
2019-05-01T19:04:23.466Z,99605.58
2019-05-01T19:06:50.552Z,99601.45
2019-05-01T19:09:29.944Z,99604.86
2019-05-01T19:11:51.297Z,99608.16
2019-05-01T19:14:23.451Z,99608.82
2019-05-01T19:16:54.304Z,99609.67
2019-05-01T19:19:23.853Z,99610.89
2019-05-01T19:21:53.393Z,99614.77
2019-05-01T19:24:23.733Z,99614.07
2019-05-01T19:26:53.186Z,99617.77
2019-05-01T19:29:26.847Z,99612.73
2019-05-01T19:31:53.898Z,99607.22
2019-05-01T19:34:23.387Z,99613.64
2019-05-01T19:36:52.956Z,99613.95
2019-05-01T19:39:22.730Z,99608.14
2019-05-01T19:41:54.558Z,99610.42
2019-05-01T19:44:24.422Z,99613.23
2019-05-01T19:46:53.813Z,99614.47
2019-05-01T19:49:24.590Z,99614.41
2019-05-01T19:51:55.539Z,99611.53
2019-05-01T19:54:28.014Z,99616.70
2019-05-01T19:57:16.328Z,99612.92
2019-05-01T19:59:45.968Z,99608.79
2019-05-01T20:02:17.238Z,99611.82
2019-05-01T20:04:50.404Z,99612.62
2019-05-01T20:07:21.409Z,99606.22
2019-05-01T20:09:56.628Z,99613.22
2019-05-01T20:12:20.883Z,99607.73
2019-05-01T20:14:50.256Z,99612.55
2019-05-01T20:17:19.682Z,99615.53
2019-05-01T20:19:49.182Z,99614.76
2019-05-01T20:22:18.584Z,99615.74
2019-05-01T20:24:48.418Z,99616.34
2019-05-01T20:27:18.422Z,99622.77
2019-05-01T20:29:48.497Z,99623.17
2019-05-01T20:32:21.030Z,99624.26
2019-05-01T20:34:52.721Z,99621.36
2019-05-01T20:37:22.005Z,99624.59
2019-05-01T20:39:51.434Z,99622.36
2019-05-01T20:42:29.810Z,99619.47
2019-05-01T20:45:05.642Z,99622.30
2019-05-01T20:47:35.186Z,99623.17
2019-05-01T20:50:01.515Z,99625.27
2019-05-01T20:52:31.149Z,99621.17
2019-05-01T20:55:00.512Z,99619.05
2019-05-01T20:57:33.938Z,99617.68
2019-05-01T21:00:04.310Z,99619.45
2019-05-01T21:02:33.975Z,99617.09
2019-05-01T21:05:14.091Z,99617.81
2019-05-01T21:07:45.108Z,99616.39
2019-05-01T21:10:24.495Z,99614.69
2019-05-01T21:12:49.304Z,99616.42
2019-05-01T21:15:20.047Z,99614.53
2019-05-01T21:17:50.707Z,99614.42
2019-05-01T21:20:20.999Z,99610.81
2019-05-01T21:22:50.734Z,99616.24
2019-05-01T21:25:20.100Z,99613.37
2019-05-01T21:27:49.539Z,99613.01
2019-05-01T21:30:21.071Z,99609.23
2019-05-01T21:32:50.497Z,99617.00
2019-05-01T21:35:19.917Z,99613.97
2019-05-01T21:37:49.594Z,99609.53
2019-05-01T21:40:19.753Z,99612.06
2019-05-01T21:42:54.333Z,99612.37
2019-05-01T21:45:22.894Z,99606.83
2019-05-01T21:47:52.872Z,99609.79
2019-05-01T21:50:26.254Z,99608.69
2019-05-01T21:52:53.838Z,99602.12
2019-05-01T21:55:25.639Z,99607.52
2019-05-01T21:57:55.940Z,99602.45
2019-05-01T22:00:28.072Z,99606.38
2019-05-01T22:02:57.635Z,99604.76
2019-05-01T22:05:27.044Z,99604.28
2019-05-01T22:07:58.658Z,99607.53
2019-05-01T22:10:28.480Z,99607.48
2019-05-01T22:12:58.089Z,99612.84
2019-05-01T22:15:42.051Z,99612.70
2019-05-01T22:18:13.334Z,99610.01
2019-05-01T22:20:56.538Z,99607.27
2019-05-01T22:23:27.575Z,99603.88
2019-05-01T22:25:58.633Z,99598.58
2019-05-01T22:28:32.265Z,99602.09
2019-05-01T22:31:06.034Z,99597.50
2019-05-01T22:33:35.929Z,99593.75
2019-05-01T22:36:06.206Z,99591.55
2019-05-01T22:38:35.666Z,99592.38
2019-05-01T22:41:09.691Z,99594.08
2019-05-01T22:43:39.173Z,99597.11
2019-05-01T22:46:10.272Z,99595.25
2019-05-01T22:48:39.660Z,99592.41
2019-05-01T22:51:10.691Z,99592.93
2019-05-01T22:53:40.083Z,99596.19
2019-05-01T22:56:09.473Z,99589.33
2019-05-01T22:58:38.866Z,99588.61
2019-05-01T23:01:08.585Z,99592.36
2019-05-01T23:03:54.518Z,99593.31
2019-05-01T23:06:24.118Z,99586.80
2019-05-01T23:08:53.498Z,99591.25
2019-05-01T23:11:24.621Z,99592.11
2019-05-01T23:13:54.065Z,99590.77
2019-05-01T23:16:28.709Z,99590.98
2019-05-01T23:18:56.302Z,99588.26
2019-05-01T23:21:25.723Z,99586.11
2019-05-01T23:23:56.863Z,99582.27
2019-05-01T23:26:26.251Z,99576.45
2019-05-01T23:28:55.670Z,99571.81
2019-05-01T23:31:31.565Z,99573.27
2019-05-01T23:34:00.944Z,99568.44
2019-05-01T23:36:30.352Z,99566.04
2019-05-01T23:38:59.727Z,99561.44
2019-05-01T23:41:45.301Z,99561.70
2019-05-01T23:44:03.564Z,99562.34
2019-05-01T23:46:31.452Z,99558.31
2019-05-01T23:49:01.128Z,99555.68
2019-05-01T23:51:30.538Z,99553.54
2019-05-01T23:53:59.909Z,99553.95
2019-05-01T23:56:31.043Z,99549.43
2019-05-01T23:59:00.506Z,99547.88
